sensor_id;sensor_type;location;lat;lon;timestamp;pressure;altitude;pressure_sealevel;temperature;humidity
34696;BME280;20918;51.138;17.370;2022-10-17T00:01:14;101055.84;;;10.89;88.91
34696;BME280;20918;51.138;17.370;2022-10-17T00:04:15;101056.42;;;10.83;88.25
34696;BME280;20918;51.138;17.370;2022-10-17T00:07:16;101052.95;;;10.72;87.97
34696;BME280;20918;51.138;17.370;2022-10-17T00:10:17;101054.45;;;10.61;87.75
34696;BME280;20918;51.138;17.370;2022-10-17T00:13:19;101056.31;;;10.51;88.03
34696;BME280;20918;51.138;17.370;2022-10-17T00:16:30;101056.03;;;10.44;88.33
34696;BME280;20918;51.138;17.370;2022-10-17T00:19:29;101042.72;;;10.40;88.14
34696;BME280;20918;51.138;17.370;2022-10-17T00:22:30;101049.23;;;10.32;87.84
34696;BME280;20918;51.138;17.370;2022-10-17T00:25:31;101043.27;;;10.24;88.02
34696;BME280;20918;51.138;17.370;2022-10-17T00:28:32;101044.47;;;10.26;88.20
34696;BME280;20918;51.138;17.370;2022-10-17T00:31:33;101044.55;;;10.20;87.79
34696;BME280;20918;51.138;17.370;2022-10-17T00:34:35;101048.31;;;10.18;88.10
34696;BME280;20918;51.138;17.370;2022-10-17T00:37:36;101042.09;;;10.13;87.99
34696;BME280;20918;51.138;17.370;2022-10-17T00:40:38;101037.73;;;10.08;87.87
34696;BME280;20918;51.138;17.370;2022-10-17T00:47:05;101039.47;;;10.03;88.59
34696;BME280;20918;51.138;17.370;2022-10-17T00:50:12;101033.33;;;10.03;88.78
34696;BME280;20918;51.138;17.370;2022-10-17T00:53:13;101032.34;;;10.04;89.08
34696;BME280;20918;51.138;17.370;2022-10-17T00:56:18;101031.56;;;10.07;89.09
34696;BME280;20918;51.138;17.370;2022-10-17T00:59:21;101031.64;;;10.12;89.33
34696;BME280;20918;51.138;17.370;2022-10-17T01:02:23;101036.59;;;10.20;89.87
34696;BME280;20918;51.138;17.370;2022-10-17T01:05:25;101045.38;;;10.21;89.71
34696;BME280;20918;51.138;17.370;2022-10-17T01:08:27;101051.02;;;10.22;89.50
34696;BME280;20918;51.138;17.370;2022-10-17T01:11:42;101051.38;;;10.23;89.54
34696;BME280;20918;51.138;17.370;2022-10-17T01:18:46;101042.39;;;10.29;89.49
34696;BME280;20918;51.138;17.370;2022-10-17T01:31:59;101046.29;;;10.25;88.83
34696;BME280;20918;51.138;17.370;2022-10-17T01:35:22;101045.92;;;10.24;89.00
34696;BME280;20918;51.138;17.370;2022-10-17T01:38:42;101044.33;;;10.18;89.10
34696;BME280;20918;51.138;17.370;2022-10-17T01:41:56;101047.19;;;10.10;89.07
34696;BME280;20918;51.138;17.370;2022-10-17T01:45:05;101044.20;;;10.09;89.48
34696;BME280;20918;51.138;17.370;2022-10-17T01:48:20;101052.49;;;10.10;89.51
34696;BME280;20918;51.138;17.370;2022-10-17T01:51:28;101044.70;;;10.09;89.59
34696;BME280;20918;51.138;17.370;2022-10-17T01:54:46;101046.59;;;10.03;89.55
34696;BME280;20918;51.138;17.370;2022-10-17T01:57:56;101047.90;;;9.93;89.26
34696;BME280;20918;51.138;17.370;2022-10-17T02:01:01;101047.35;;;9.90;89.09
34696;BME280;20918;51.138;17.370;2022-10-17T02:04:06;101055.09;;;9.87;89.57
34696;BME280;20918;51.138;17.370;2022-10-17T02:07:10;101038.69;;;9.68;89.70
34696;BME280;20918;51.138;17.370;2022-10-17T02:10:16;101038.69;;;9.68;89.70
34696;BME280;20918;51.138;17.370;2022-10-17T02:16:57;101047.63;;;9.86;90.08
34696;BME280;20918;51.138;17.370;2022-10-17T02:23:22;101044.63;;;9.76;89.65
34696;BME280;20918;51.138;17.370;2022-10-17T02:26:40;101041.77;;;9.63;89.25
34696;BME280;20918;51.138;17.370;2022-10-17T02:29:46;101030.09;;;9.51;89.51
34696;BME280;20918;51.138;17.370;2022-10-17T02:36:04;101039.46;;;9.55;89.80
34696;BME280;20918;51.138;17.370;2022-10-17T02:39:07;101034.38;;;9.57;90.34
34696;BME280;20918;51.138;17.370;2022-10-17T02:42:11;101033.33;;;9.64;91.12
34696;BME280;20918;51.138;17.370;2022-10-17T02:45:14;101044.34;;;9.79;91.55
34696;BME280;20918;51.138;17.370;2022-10-17T02:55:17;101056.44;;;9.97;91.97
34696;BME280;20918;51.138;17.370;2022-10-17T02:58:30;101073.16;;;10.07;92.12
34696;BME280;20918;51.138;17.370;2022-10-17T03:01:31;101073.66;;;10.06;91.87
34696;BME280;20918;51.138;17.370;2022-10-17T03:04:33;101085.17;;;10.11;91.71
34696;BME280;20918;51.138;17.370;2022-10-17T03:07:34;101090.11;;;10.10;91.41
34696;BME280;20918;51.138;17.370;2022-10-17T03:10:35;101088.64;;;10.02;91.19
34696;BME280;20918;51.138;17.370;2022-10-17T03:13:36;101091.52;;;9.95;91.32
34696;BME280;20918;51.138;17.370;2022-10-17T03:16:40;101089.77;;;9.90;91.41
34696;BME280;20918;51.138;17.370;2022-10-17T03:19:41;101064.29;;;9.73;91.56
34696;BME280;20918;51.138;17.370;2022-10-17T03:22:43;101064.29;;;9.73;91.56
34696;BME280;20918;51.138;17.370;2022-10-17T03:25:44;101088.38;;;9.85;91.81
34696;BME280;20918;51.138;17.370;2022-10-17T03:28:47;101092.70;;;9.86;91.89
34696;BME280;20918;51.138;17.370;2022-10-17T03:31:48;101088.72;;;9.86;91.89
34696;BME280;20918;51.138;17.370;2022-10-17T03:34:50;101098.70;;;9.88;91.86
34696;BME280;20918;51.138;17.370;2022-10-17T03:37:51;101096.67;;;9.86;91.38
34696;BME280;20918;51.138;17.370;2022-10-17T03:40:55;101094.37;;;9.78;91.10
34696;BME280;20918;51.138;17.370;2022-10-17T03:43:57;101093.23;;;9.71;91.34
34696;BME280;20918;51.138;17.370;2022-10-17T03:46:58;101074.24;;;9.56;91.55
34696;BME280;20918;51.138;17.370;2022-10-17T03:49:59;101074.24;;;9.56;91.55
34696;BME280;20918;51.138;17.370;2022-10-17T03:53:02;101081.86;;;9.64;91.40
34696;BME280;20918;51.138;17.370;2022-10-17T03:56:15;101091.07;;;9.70;92.28
34696;BME280;20918;51.138;17.370;2022-10-17T03:59:20;101091.07;;;9.70;92.28
34696;BME280;20918;51.138;17.370;2022-10-17T04:02:23;101098.95;;;9.66;92.03
34696;BME280;20918;51.138;17.370;2022-10-17T04:05:24;101096.64;;;9.67;92.06
34696;BME280;20918;51.138;17.370;2022-10-17T04:08:30;101096.92;;;9.64;91.64
34696;BME280;20918;51.138;17.370;2022-10-17T04:11:36;101096.92;;;9.64;91.64
34696;BME280;20918;51.138;17.370;2022-10-17T04:14:39;101076.73;;;9.48;91.22
34696;BME280;20918;51.138;17.370;2022-10-17T04:17:40;101101.17;;;9.61;91.50
34696;BME280;20918;51.138;17.370;2022-10-17T04:20:41;101110.72;;;9.58;91.62
34696;BME280;20918;51.138;17.370;2022-10-17T04:23:42;101110.72;;;9.58;91.62
34696;BME280;20918;51.138;17.370;2022-10-17T04:26:50;101116.35;;;9.49;91.99
34696;BME280;20918;51.138;17.370;2022-10-17T04:29:52;101116.35;;;9.49;91.99
34696;BME280;20918;51.138;17.370;2022-10-17T04:32:57;101106.64;;;9.44;92.01
34696;BME280;20918;51.138;17.370;2022-10-17T04:36:09;101113.27;;;9.54;92.58
34696;BME280;20918;51.138;17.370;2022-10-17T04:39:12;101113.27;;;9.54;92.58
34696;BME280;20918;51.138;17.370;2022-10-17T04:42:13;101118.08;;;9.54;92.47
34696;BME280;20918;51.138;17.370;2022-10-17T04:45:16;101118.63;;;9.48;91.82
34696;BME280;20918;51.138;17.370;2022-10-17T04:48:18;101114.09;;;9.45;91.94
34696;BME280;20918;51.138;17.370;2022-10-17T04:51:20;101114.09;;;9.45;91.94
34696;BME280;20918;51.138;17.370;2022-10-17T04:54:23;101109.45;;;9.52;92.93
34696;BME280;20918;51.138;17.370;2022-10-17T04:57:29;101109.45;;;9.52;92.93
34696;BME280;20918;51.138;17.370;2022-10-17T05:00:34;101114.20;;;9.58;93.19
34696;BME280;20918;51.138;17.370;2022-10-17T05:03:37;101117.41;;;9.62;93.14
34696;BME280;20918;51.138;17.370;2022-10-17T05:06:39;101113.93;;;9.61;93.14
34696;BME280;20918;51.138;17.370;2022-10-17T05:09:57;101105.98;;;9.61;92.68
34696;BME280;20918;51.138;17.370;2022-10-17T05:12:59;101116.86;;;9.68;93.53
34696;BME280;20918;51.138;17.370;2022-10-17T05:16:02;101116.86;;;9.68;93.53
34696;BME280;20918;51.138;17.370;2022-10-17T05:19:03;101112.09;;;9.77;93.83
34696;BME280;20918;51.138;17.370;2022-10-17T05:22:06;101120.66;;;9.85;93.98
34696;BME280;20918;51.138;17.370;2022-10-17T05:25:07;101122.41;;;9.90;93.91
34696;BME280;20918;51.138;17.370;2022-10-17T05:28:09;101119.33;;;9.85;93.59
34696;BME280;20918;51.138;17.370;2022-10-17T05:31:11;101119.33;;;9.85;93.59
34696;BME280;20918;51.138;17.370;2022-10-17T05:34:13;101142.78;;;9.99;93.80
34696;BME280;20918;51.138;17.370;2022-10-17T05:37:15;101143.86;;;10.12;93.80
34696;BME280;20918;51.138;17.370;2022-10-17T05:40:18;101143.86;;;10.12;93.80
34696;BME280;20918;51.138;17.370;2022-10-17T05:43:20;101146.78;;;10.19;93.79
34696;BME280;20918;51.138;17.370;2022-10-17T05:46:21;101157.08;;;10.27;93.48
34696;BME280;20918;51.138;17.370;2022-10-17T05:49:24;101161.34;;;10.44;93.58
34696;BME280;20918;51.138;17.370;2022-10-17T05:52:25;101169.28;;;10.63;93.35
34696;BME280;20918;51.138;17.370;2022-10-17T05:55:28;101172.53;;;10.90;93.49
34696;BME280;20918;51.138;17.370;2022-10-17T05:58:31;101176.63;;;11.22;93.62
34696;BME280;20918;51.138;17.370;2022-10-17T06:01:36;101179.23;;;11.55;93.29
34696;BME280;20918;51.138;17.370;2022-10-17T06:04:37;101185.80;;;11.88;92.91
34696;BME280;20918;51.138;17.370;2022-10-17T06:07:38;101181.59;;;12.14;92.31
34696;BME280;20918;51.138;17.370;2022-10-17T06:10:40;101186.98;;;12.40;91.99
34696;BME280;20918;51.138;17.370;2022-10-17T06:13:41;101198.38;;;12.68;91.40
34696;BME280;20918;51.138;17.370;2022-10-17T06:16:48;101194.44;;;12.98;91.15
34696;BME280;20918;51.138;17.370;2022-10-17T06:19:49;101194.29;;;13.26;90.66
34696;BME280;20918;51.138;17.370;2022-10-17T06:22:50;101198.06;;;13.45;90.01
34696;BME280;20918;51.138;17.370;2022-10-17T06:26:05;101202.00;;;13.71;89.70
34696;BME280;20918;51.138;17.370;2022-10-17T06:29:03;101201.61;;;14.00;89.46
34696;BME280;20918;51.138;17.370;2022-10-17T06:32:06;101200.85;;;14.37;89.19
34696;BME280;20918;51.138;17.370;2022-10-17T06:35:08;101197.88;;;14.60;87.97
34696;BME280;20918;51.138;17.370;2022-10-17T06:38:10;101203.57;;;14.73;87.16
34696;BME280;20918;51.138;17.370;2022-10-17T06:41:13;101200.05;;;14.93;87.01
34696;BME280;20918;51.138;17.370;2022-10-17T06:44:15;101199.50;;;15.18;86.63
34696;BME280;20918;51.138;17.370;2022-10-17T06:47:25;101200.31;;;15.27;84.94
34696;BME280;20918;51.138;17.370;2022-10-17T06:50:28;101202.48;;;15.28;84.77
34696;BME280;20918;51.138;17.370;2022-10-17T06:53:34;101206.14;;;15.31;84.09
34696;BME280;20918;51.138;17.370;2022-10-17T06:56:40;101211.50;;;15.35;83.97
34696;BME280;20918;51.138;17.370;2022-10-17T07:00:00;101205.48;;;15.33;83.37
34696;BME280;20918;51.138;17.370;2022-10-17T07:03:03;101210.14;;;15.43;83.87
34696;BME280;20918;51.138;17.370;2022-10-17T07:06:05;101211.84;;;15.83;84.05
34696;BME280;20918;51.138;17.370;2022-10-17T07:09:07;101217.47;;;16.24;83.14
34696;BME280;20918;51.138;17.370;2022-10-17T07:12:10;101212.78;;;16.49;82.74
34696;BME280;20918;51.138;17.370;2022-10-17T07:15:14;101217.58;;;16.80;81.91
34696;BME280;20918;51.138;17.370;2022-10-17T07:18:15;101215.09;;;16.98;80.43
34696;BME280;20918;51.138;17.370;2022-10-17T07:21:18;101221.44;;;17.01;78.54
34696;BME280;20918;51.138;17.370;2022-10-17T07:24:19;101232.91;;;17.10;78.75
34696;BME280;20918;51.138;17.370;2022-10-17T07:27:22;101225.02;;;17.27;79.62
34696;BME280;20918;51.138;17.370;2022-10-17T07:30:24;101226.55;;;17.55;78.79
34696;BME280;20918;51.138;17.370;2022-10-17T07:33:40;101232.70;;;17.75;77.79
34696;BME280;20918;51.138;17.370;2022-10-17T07:36:42;101225.98;;;17.75;77.86
34696;BME280;20918;51.138;17.370;2022-10-17T07:39:45;101236.52;;;17.76;77.56
34696;BME280;20918;51.138;17.370;2022-10-17T07:42:46;101234.73;;;18.02;77.88
34696;BME280;20918;51.138;17.370;2022-10-17T07:45:48;101233.03;;;18.37;76.83
34696;BME280;20918;51.138;17.370;2022-10-17T07:48:49;101237.27;;;18.68;76.43
34696;BME280;20918;51.138;17.370;2022-10-17T07:51:53;101233.12;;;18.98;75.91
34696;BME280;20918;51.138;17.370;2022-10-17T07:54:54;101236.29;;;19.25;74.74
34696;BME280;20918;51.138;17.370;2022-10-17T07:57:56;101236.14;;;19.51;74.51
34696;BME280;20918;51.138;17.370;2022-10-17T08:01:02;101240.00;;;19.70;73.71
34696;BME280;20918;51.138;17.370;2022-10-17T08:04:05;101241.84;;;19.87;72.61
34696;BME280;20918;51.138;17.370;2022-10-17T08:07:07;101243.84;;;19.96;72.17
34696;BME280;20918;51.138;17.370;2022-10-17T08:10:11;101242.08;;;19.92;69.91
34696;BME280;20918;51.138;17.370;2022-10-17T08:13:12;101237.50;;;19.86;70.08
34696;BME280;20918;51.138;17.370;2022-10-17T08:16:14;101234.94;;;19.95;69.78
34696;BME280;20918;51.138;17.370;2022-10-17T08:19:17;101235.94;;;20.11;70.82
34696;BME280;20918;51.138;17.370;2022-10-17T08:22:18;101234.45;;;20.33;70.13
34696;BME280;20918;51.138;17.370;2022-10-17T08:25:20;101234.86;;;20.43;68.33
34696;BME280;20918;51.138;17.370;2022-10-17T08:28:21;101233.63;;;20.39;67.49
34696;BME280;20918;51.138;17.370;2022-10-17T08:31:23;101238.67;;;20.25;67.17
34696;BME280;20918;51.138;17.370;2022-10-17T08:34:24;101234.53;;;20.35;66.44
34696;BME280;20918;51.138;17.370;2022-10-17T08:37:25;101229.59;;;20.39;66.19
34696;BME280;20918;51.138;17.370;2022-10-17T08:40:28;101231.05;;;20.48;66.23
34696;BME280;20918;51.138;17.370;2022-10-17T08:47:41;101234.82;;;20.80;66.18
34696;BME280;20918;51.138;17.370;2022-10-17T08:53:57;101233.29;;;20.95;63.86
34696;BME280;20918;51.138;17.370;2022-10-17T08:57:12;101229.21;;;21.09;65.00
34696;BME280;20918;51.138;17.370;2022-10-17T09:00:17;101229.19;;;21.35;63.65
34696;BME280;20918;51.138;17.370;2022-10-17T09:06:43;101229.13;;;21.68;63.67
34696;BME280;20918;51.138;17.370;2022-10-17T09:10:14;101228.04;;;21.76;62.67
34696;BME280;20918;51.138;17.370;2022-10-17T09:13:34;101213.80;;;21.78;62.35
34696;BME280;20918;51.138;17.370;2022-10-17T09:20:35;101204.45;;;22.03;61.45
34696;BME280;20918;51.138;17.370;2022-10-17T09:23:49;101203.73;;;22.21;62.32
34696;BME280;20918;51.138;17.370;2022-10-17T09:26:55;101213.42;;;22.51;61.54
34696;BME280;20918;51.138;17.370;2022-10-17T09:33:40;101207.56;;;22.70;59.00
34696;BME280;20918;51.138;17.370;2022-10-17T09:36:43;101212.24;;;22.72;58.80
34696;BME280;20918;51.138;17.370;2022-10-17T09:39:44;101209.75;;;22.55;57.41
34696;BME280;20918;51.138;17.370;2022-10-17T09:42:48;101211.25;;;22.51;57.08
34696;BME280;20918;51.138;17.370;2022-10-17T09:49:17;101213.39;;;22.42;57.43
34696;BME280;20918;51.138;17.370;2022-10-17T09:52:39;101217.16;;;22.66;57.15
34696;BME280;20918;51.138;17.370;2022-10-17T09:55:46;101212.64;;;22.85;57.19
34696;BME280;20918;51.138;17.370;2022-10-17T09:58:52;101212.11;;;22.86;55.94
34696;BME280;20918;51.138;17.370;2022-10-17T10:02:06;101211.98;;;22.90;56.95
34696;BME280;20918;51.138;17.370;2022-10-17T10:05:18;101210.48;;;23.10;56.46
34696;BME280;20918;51.138;17.370;2022-10-17T10:08:20;101215.80;;;23.07;55.98
34696;BME280;20918;51.138;17.370;2022-10-17T10:11:46;101204.28;;;23.02;54.52
34696;BME280;20918;51.138;17.370;2022-10-17T10:14:59;101199.94;;;23.11;55.81
34696;BME280;20918;51.138;17.370;2022-10-17T10:18:01;101202.89;;;23.18;54.73
34696;BME280;20918;51.138;17.370;2022-10-17T10:24:19;101202.59;;;23.26;54.08
34696;BME280;20918;51.138;17.370;2022-10-17T10:27:26;101199.75;;;23.40;54.91
34696;BME280;20918;51.138;17.370;2022-10-17T10:30:27;101195.00;;;23.44;53.61
34696;BME280;20918;51.138;17.370;2022-10-17T10:33:31;101192.98;;;23.40;52.87
34696;BME280;20918;51.138;17.370;2022-10-17T10:36:43;101195.83;;;23.36;52.87
34696;BME280;20918;51.138;17.370;2022-10-17T10:39:54;101195.83;;;23.36;53.77
34696;BME280;20918;51.138;17.370;2022-10-17T10:43:01;101197.33;;;23.50;54.12
34696;BME280;20918;51.138;17.370;2022-10-17T10:46:15;101196.43;;;23.47;53.15
34696;BME280;20918;51.138;17.370;2022-10-17T10:49:31;101198.39;;;23.49;53.23
34696;BME280;20918;51.138;17.370;2022-10-17T10:52:51;101207.02;;;23.67;53.23
34696;BME280;20918;51.138;17.370;2022-10-17T10:56:05;101201.62;;;23.85;54.00
34696;BME280;20918;51.138;17.370;2022-10-17T10:59:12;101199.28;;;23.89;51.86
34696;BME280;20918;51.138;17.370;2022-10-17T11:02:32;101193.88;;;23.70;51.31
34696;BME280;20918;51.138;17.370;2022-10-17T11:12:39;101194.62;;;23.68;52.28
34696;BME280;20918;51.138;17.370;2022-10-17T11:19:43;101187.62;;;23.88;52.44
34696;BME280;20918;51.138;17.370;2022-10-17T11:22:54;101185.55;;;23.93;52.22
34696;BME280;20918;51.138;17.370;2022-10-17T11:26:04;101189.94;;;23.94;52.21
34696;BME280;20918;51.138;17.370;2022-10-17T11:29:08;101181.81;;;23.85;50.85
34696;BME280;20918;51.138;17.370;2022-10-17T11:35:36;101169.50;;;23.52;52.27
34696;BME280;20918;51.138;17.370;2022-10-17T11:38:50;101173.25;;;23.60;52.88
34696;BME280;20918;51.138;17.370;2022-10-17T11:42:01;101165.70;;;23.62;52.67
34696;BME280;20918;51.138;17.370;2022-10-17T11:45:16;101160.61;;;23.73;52.81
34696;BME280;20918;51.138;17.370;2022-10-17T11:48:29;101161.34;;;23.89;53.06
34696;BME280;20918;51.138;17.370;2022-10-17T11:55:26;101159.56;;;24.04;51.82
34696;BME280;20918;51.138;17.370;2022-10-17T11:58:45;101165.44;;;24.01;51.41
34696;BME280;20918;51.138;17.370;2022-10-17T12:01:55;101164.66;;;23.91;52.06
34696;BME280;20918;51.138;17.370;2022-10-17T12:08:35;101151.95;;;24.03;52.12
34696;BME280;20918;51.138;17.370;2022-10-17T12:11:57;101147.25;;;23.89;52.54
34696;BME280;20918;51.138;17.370;2022-10-17T12:18:16;101150.06;;;24.04;53.06
34696;BME280;20918;51.138;17.370;2022-10-17T12:21:17;101141.86;;;24.10;53.24
34696;BME280;20918;51.138;17.370;2022-10-17T12:27:41;101135.90;;;24.11;53.15
34696;BME280;20918;51.138;17.370;2022-10-17T12:30:52;101137.66;;;24.05;53.42
34696;BME280;20918;51.138;17.370;2022-10-17T12:33:57;101140.55;;;23.92;53.03
34696;BME280;20918;51.138;17.370;2022-10-17T12:37:00;101142.47;;;23.73;52.78
34696;BME280;20918;51.138;17.370;2022-10-17T12:40:02;101144.61;;;23.71;53.56
34696;BME280;20918;51.138;17.370;2022-10-17T12:49:50;101125.17;;;23.74;53.48
34696;BME280;20918;51.138;17.370;2022-10-17T12:52:56;101125.11;;;23.71;52.22
34696;BME280;20918;51.138;17.370;2022-10-17T12:55:59;101118.52;;;23.70;53.42
34696;BME280;20918;51.138;17.370;2022-10-17T12:59:12;101120.05;;;23.75;53.33
34696;BME280;20918;51.138;17.370;2022-10-17T13:02:24;101126.96;;;23.80;53.54
34696;BME280;20918;51.138;17.370;2022-10-17T13:05:33;101114.77;;;23.80;52.69
34696;BME280;20918;51.138;17.370;2022-10-17T13:08:40;101116.13;;;23.80;53.04
34696;BME280;20918;51.138;17.370;2022-10-17T13:11:43;101122.50;;;23.86;52.92
34696;BME280;20918;51.138;17.370;2022-10-17T13:14:45;101124.75;;;23.89;53.14
34696;BME280;20918;51.138;17.370;2022-10-17T13:17:55;101127.21;;;23.90;53.31
34696;BME280;20918;51.138;17.370;2022-10-17T13:21:03;101123.53;;;23.94;52.71
34696;BME280;20918;51.138;17.370;2022-10-17T13:24:29;101127.00;;;23.92;52.27
34696;BME280;20918;51.138;17.370;2022-10-17T13:27:33;101130.09;;;23.86;53.43
34696;BME280;20918;51.138;17.370;2022-10-17T13:30:36;101122.58;;;23.79;52.87
34696;BME280;20918;51.138;17.370;2022-10-17T13:33:39;101121.40;;;23.75;53.20
34696;BME280;20918;51.138;17.370;2022-10-17T13:36:41;101114.55;;;23.73;53.63
34696;BME280;20918;51.138;17.370;2022-10-17T13:39:45;101115.45;;;23.76;53.65
34696;BME280;20918;51.138;17.370;2022-10-17T13:42:49;101116.80;;;23.76;53.72
34696;BME280;20918;51.138;17.370;2022-10-17T13:45:53;101120.26;;;23.74;53.98
34696;BME280;20918;51.138;17.370;2022-10-17T13:48:57;101117.63;;;23.76;53.73
34696;BME280;20918;51.138;17.370;2022-10-17T13:52:05;101120.72;;;23.70;53.41
34696;BME280;20918;51.138;17.370;2022-10-17T13:55:16;101111.23;;;23.61;53.79
34696;BME280;20918;51.138;17.370;2022-10-17T13:58:19;101111.87;;;23.54;54.15
34696;BME280;20918;51.138;17.370;2022-10-17T14:01:21;101118.57;;;23.52;53.92
34696;BME280;20918;51.138;17.370;2022-10-17T14:04:24;101116.61;;;23.49;54.27
34696;BME280;20918;51.138;17.370;2022-10-17T14:10:40;101116.69;;;23.34;54.55
34696;BME280;20918;51.138;17.370;2022-10-17T14:13:46;101112.34;;;23.33;54.55
34696;BME280;20918;51.138;17.370;2022-10-17T14:16:51;101113.62;;;23.30;54.59
34696;BME280;20918;51.138;17.370;2022-10-17T14:19:58;101108.45;;;23.29;54.51
34696;BME280;20918;51.138;17.370;2022-10-17T14:23:02;101111.36;;;23.27;54.66
34696;BME280;20918;51.138;17.370;2022-10-17T14:26:21;101111.74;;;23.21;54.58
34696;BME280;20918;51.138;17.370;2022-10-17T14:29:26;101113.48;;;23.16;54.33
34696;BME280;20918;51.138;17.370;2022-10-17T14:32:34;101103.02;;;23.10;54.55
34696;BME280;20918;51.138;17.370;2022-10-17T14:35:36;101099.88;;;23.04;53.73
34696;BME280;20918;51.138;17.370;2022-10-17T14:38:49;101099.72;;;22.99;54.21
34696;BME280;20918;51.138;17.370;2022-10-17T14:41:49;101095.70;;;22.92;54.39
34696;BME280;20918;51.138;17.370;2022-10-17T14:44:53;101090.67;;;22.87;54.84
34696;BME280;20918;51.138;17.370;2022-10-17T14:48:11;101094.33;;;22.83;54.58
34696;BME280;20918;51.138;17.370;2022-10-17T14:51:16;101105.06;;;22.80;55.03
34696;BME280;20918;51.138;17.370;2022-10-17T14:54:25;101098.47;;;22.76;54.70
34696;BME280;20918;51.138;17.370;2022-10-17T14:57:39;101101.33;;;22.72;54.94
34696;BME280;20918;51.138;17.370;2022-10-17T15:00:44;101098.91;;;22.64;55.20
34696;BME280;20918;51.138;17.370;2022-10-17T15:03:45;101101.57;;;22.55;55.36
34696;BME280;20918;51.138;17.370;2022-10-17T15:06:52;101096.44;;;22.47;55.64
34696;BME280;20918;51.138;17.370;2022-10-17T15:09:53;101094.55;;;22.38;55.91
34696;BME280;20918;51.138;17.370;2022-10-17T15:12:55;101092.35;;;22.28;56.14
34696;BME280;20918;51.138;17.370;2022-10-17T15:15:56;101095.33;;;22.20;56.32
34696;BME280;20918;51.138;17.370;2022-10-17T15:18:57;101092.39;;;22.06;56.55
34696;BME280;20918;51.138;17.370;2022-10-17T15:21:58;101092.27;;;21.94;56.86
34696;BME280;20918;51.138;17.370;2022-10-17T15:24:59;101084.53;;;21.82;57.13
34696;BME280;20918;51.138;17.370;2022-10-17T15:28:00;101084.50;;;21.73;57.42
34696;BME280;20918;51.138;17.370;2022-10-17T15:31:02;101087.45;;;21.64;57.70
34696;BME280;20918;51.138;17.370;2022-10-17T15:34:03;101087.52;;;21.51;57.95
34696;BME280;20918;51.138;17.370;2022-10-17T15:37:06;101084.07;;;21.37;58.16
34696;BME280;20918;51.138;17.370;2022-10-17T15:40:21;101084.32;;;21.16;58.45
34696;BME280;20918;51.138;17.370;2022-10-17T15:43:19;101084.39;;;20.96;58.89
34696;BME280;20918;51.138;17.370;2022-10-17T15:46:23;101087.86;;;20.74;59.28
34696;BME280;20918;51.138;17.370;2022-10-17T15:49:26;101088.70;;;20.54;59.57
34696;BME280;20918;51.138;17.370;2022-10-17T15:52:27;101080.71;;;20.37;59.85
34696;BME280;20918;51.138;17.370;2022-10-17T15:55:28;101080.52;;;20.25;60.08
34696;BME280;20918;51.138;17.370;2022-10-17T15:58:40;101078.44;;;20.14;60.23
34696;BME280;20918;51.138;17.370;2022-10-17T16:01:40;101081.52;;;20.04;60.55
34696;BME280;20918;51.138;17.370;2022-10-17T16:04:42;101080.48;;;19.92;60.57
34696;BME280;20918;51.138;17.370;2022-10-17T16:07:44;101083.77;;;19.81;60.94
34696;BME280;20918;51.138;17.370;2022-10-17T16:10:46;101085.30;;;19.66;61.28
34696;BME280;20918;51.138;17.370;2022-10-17T16:13:49;101086.86;;;19.54;61.39
34696;BME280;20918;51.138;17.370;2022-10-17T16:16:52;101083.53;;;19.45;61.60
34696;BME280;20918;51.138;17.370;2022-10-17T16:19:53;101086.91;;;19.36;61.71
34696;BME280;20918;51.138;17.370;2022-10-17T16:22:54;101087.72;;;19.30;61.89
34696;BME280;20918;51.138;17.370;2022-10-17T16:25:57;101096.78;;;19.22;62.06
34696;BME280;20918;51.138;17.370;2022-10-17T16:28:58;101090.75;;;19.14;62.19
34696;BME280;20918;51.138;17.370;2022-10-17T16:32:01;101094.42;;;19.06;62.36
34696;BME280;20918;51.138;17.370;2022-10-17T16:35:03;101101.13;;;18.99;62.38
34696;BME280;20918;51.138;17.370;2022-10-17T16:38:06;101109.86;;;18.91;62.46
34696;BME280;20918;51.138;17.370;2022-10-17T16:41:25;101108.88;;;18.70;62.65
34696;BME280;20918;51.138;17.370;2022-10-17T16:44:28;101107.61;;;18.55;63.03
34696;BME280;20918;51.138;17.370;2022-10-17T16:47:29;101109.31;;;18.35;63.28
34696;BME280;20918;51.138;17.370;2022-10-17T16:50:30;101106.89;;;18.19;63.87
34696;BME280;20918;51.138;17.370;2022-10-17T16:53:33;101109.47;;;18.05;64.32
34696;BME280;20918;51.138;17.370;2022-10-17T16:56:36;101104.51;;;17.77;64.88
34696;BME280;20918;51.138;17.370;2022-10-17T16:59:37;101105.42;;;17.58;65.23
34696;BME280;20918;51.138;17.370;2022-10-17T17:02:38;101107.80;;;17.42;65.65
34696;BME280;20918;51.138;17.370;2022-10-17T17:05:40;101107.42;;;17.35;65.83
34696;BME280;20918;51.138;17.370;2022-10-17T17:08:42;101110.72;;;17.26;66.12
34696;BME280;20918;51.138;17.370;2022-10-17T17:11:43;101106.28;;;17.18;66.34
34696;BME280;20918;51.138;17.370;2022-10-17T17:14:45;101108.16;;;17.14;66.56
34696;BME280;20918;51.138;17.370;2022-10-17T17:17:46;101105.85;;;17.11;66.72
34696;BME280;20918;51.138;17.370;2022-10-17T17:20:47;101114.81;;;17.03;66.80
34696;BME280;20918;51.138;17.370;2022-10-17T17:23:48;101113.91;;;16.96;67.13
34696;BME280;20918;51.138;17.370;2022-10-17T17:26:52;101112.82;;;16.86;67.27
34696;BME280;20918;51.138;17.370;2022-10-17T17:29:55;101108.20;;;16.80;67.55
34696;BME280;20918;51.138;17.370;2022-10-17T17:32:56;101112.41;;;16.74;67.81
34696;BME280;20918;51.138;17.370;2022-10-17T17:36:00;101118.66;;;16.71;67.98